Time;durP1;ratioP1;P1;durP2;ratioP2;P2;SDS_P1;SDS_P2;PMS_P1;PMS_P2;Temp;Humidity;BMP_temperature;BMP_pressure;BME280_temperature;BME280_humidity;BME280_pressure;Samples;Min_cycle;Max_cycle;Signal;HPM_P1;HPM_P2
2021/12/03 00:01:13;;;;;;;10.20;7.10;;;;;;;0.33;100.00;94425.94;5055325;28;20182;-56
2021/12/03 00:03:39;;;;;;;11.17;7.53;;;;;;;0.37;100.00;94425.97;5055241;28;20253;-56
2021/12/03 00:06:04;;;;;;;10.23;7.50;;;;;;;0.42;100.00;94434.50;5055622;28;20214;-58
2021/12/03 00:08:30;;;;;;;10.63;7.17;;;;;;;0.50;100.00;94430.00;5055543;28;20183;-57
2021/12/03 00:11:00;;;;;;;10.70;7.27;;;;;;;0.51;100.00;94435.00;5055397;28;20191;-57
2021/12/03 00:13:27;;;;;;;8.37;6.40;;;;;;;0.51;100.00;94443.03;5055441;28;20170;-57
2021/12/03 00:15:54;;;;;;;10.53;6.77;;;;;;;0.49;100.00;94439.97;5054826;28;20217;-51
2021/12/03 00:18:20;;;;;;;10.40;7.00;;;;;;;0.50;100.00;94441.50;5054921;28;20205;-52
2021/12/03 00:20:46;;;;;;;9.50;6.90;;;;;;;0.48;100.00;94438.41;5055228;28;20178;-50
2021/12/03 00:23:12;;;;;;;11.10;7.43;;;;;;;0.44;100.00;94453.72;5055305;28;20263;-48
2021/12/03 00:25:39;;;;;;;13.30;7.83;;;;;;;0.43;100.00;94454.81;5054208;28;20189;-50
2021/12/03 00:28:04;;;;;;;10.67;7.23;;;;;;;0.42;100.00;94461.34;5054572;28;20184;-52
2021/12/03 00:30:31;;;;;;;11.50;7.00;;;;;;;0.42;100.00;94465.91;5054421;28;20174;-53
2021/12/03 00:32:56;;;;;;;9.07;6.90;;;;;;;0.41;100.00;94470.53;5054713;28;20207;-49
2021/12/03 00:35:22;;;;;;;10.07;7.17;;;;;;;0.41;100.00;94480.50;5054237;28;20210;-50
2021/12/03 00:37:49;;;;;;;11.47;6.77;;;;;;;0.32;100.00;94488.78;5054999;28;20175;-48
2021/12/03 00:40:19;;;;;;;9.97;6.87;;;;;;;0.34;100.00;94497.28;5055193;28;20203;-53
2021/12/03 00:42:44;;;;;;;10.70;6.57;;;;;;;0.36;100.00;94508.41;5054379;28;20178;-51
2021/12/03 00:45:12;;;;;;;10.87;7.00;;;;;;;0.33;100.00;94522.56;5054226;28;20175;-49
2021/12/03 00:47:39;;;;;;;10.37;7.30;;;;;;;0.39;100.00;94531.84;5054576;28;20179;-52
2021/12/03 00:50:07;;;;;;;9.83;7.03;;;;;;;0.45;100.00;94530.44;5054528;28;20182;-58
2021/12/03 00:52:32;;;;;;;10.00;7.07;;;;;;;0.47;100.00;94538.88;5054106;28;20182;-59
2021/12/03 00:54:58;;;;;;;11.83;7.23;;;;;;;0.45;100.00;94549.22;5054613;28;20262;-59
2021/12/03 00:57:23;;;;;;;10.37;7.07;;;;;;;0.47;100.00;94549.63;5053909;28;20198;-59
2021/12/03 00:59:48;;;;;;;12.57;7.37;;;;;;;0.47;100.00;94554.22;5053144;28;20195;-59
2021/12/03 01:02:14;;;;;;;9.97;6.77;;;;;;;0.46;100.00;94558.03;5054146;28;20171;-58
2021/12/03 01:04:39;;;;;;;10.77;7.13;;;;;;;0.43;100.00;94581.00;5053923;28;20172;-59
2021/12/03 01:07:04;;;;;;;10.57;6.87;;;;;;;0.43;100.00;94572.94;5053732;28;20232;-50
2021/12/03 01:09:31;;;;;;;10.13;7.00;;;;;;;0.44;100.00;94574.53;5054332;28;20175;-59
2021/12/03 01:11:57;;;;;;;11.03;7.20;;;;;;;0.50;100.00;94580.38;5054256;28;20184;-56
2021/12/03 01:14:23;;;;;;;10.83;7.50;;;;;;;0.54;100.00;94581.97;5053545;28;20201;-55
2021/12/03 01:16:48;;;;;;;10.77;7.27;;;;;;;0.53;100.00;94588.47;5054148;28;20196;-55
2021/12/03 01:19:14;;;;;;;9.57;6.83;;;;;;;0.55;100.00;94583.53;5053349;28;20198;-55
2021/12/03 01:21:39;;;;;;;10.80;6.73;;;;;;;0.53;100.00;94596.53;5054015;28;20175;-52
2021/12/03 01:24:06;;;;;;;10.13;7.47;;;;;;;0.54;100.00;94603.44;5053903;28;20183;-55
2021/12/03 01:26:33;;;;;;;12.27;7.63;;;;;;;0.57;100.00;94601.94;5053705;28;20200;-58
2021/12/03 01:28:58;;;;;;;11.40;7.47;;;;;;;0.57;100.00;94613.47;5053206;28;20192;-58
2021/12/03 01:31:24;;;;;;;10.80;7.70;;;;;;;0.59;100.00;94624.63;5054084;28;20171;-58
2021/12/03 01:33:50;;;;;;;10.73;7.40;;;;;;;0.56;100.00;94628.03;5053238;28;20180;-58
2021/12/03 01:36:16;;;;;;;12.03;7.37;;;;;;;0.60;100.00;94634.25;5053169;28;20224;-58
2021/12/03 01:38:42;;;;;;;12.10;7.77;;;;;;;0.61;100.00;94641.16;5053161;28;20279;-58
2021/12/03 01:41:08;;;;;;;11.63;7.80;;;;;;;0.60;100.00;94642.28;5053279;28;20187;-58
2021/12/03 01:43:33;;;;;;;11.63;7.67;;;;;;;0.66;100.00;94640.88;5053314;28;20191;-58
2021/12/03 01:46:03;;;;;;;12.10;8.13;;;;;;;0.63;100.00;94644.28;5053902;28;20191;-62
2021/12/03 01:48:30;;;;;;;11.53;7.60;;;;;;;0.61;100.00;94629.66;5053169;28;20186;-48
2021/12/03 01:50:56;;;;;;;11.73;8.13;;;;;;;0.63;100.00;94630.84;5053273;28;20171;-50
2021/12/03 01:53:25;;;;;;;11.80;7.83;;;;;;;0.67;100.00;94634.34;5052933;28;20176;-51
2021/12/03 01:55:53;;;;;;;13.17;8.20;;;;;;;0.64;100.00;94634.28;5053138;28;20194;-50
2021/12/03 01:58:18;;;;;;;12.53;8.07;;;;;;;0.62;100.00;94637.31;5052334;28;20191;-49
2021/12/03 02:00:48;;;;;;;11.63;8.03;;;;;;;0.61;100.00;94627.72;5052967;28;20267;-51
2021/12/03 02:03:16;;;;;;;10.47;7.50;;;;;;;0.61;100.00;94635.03;5052672;28;20163;-64
2021/12/03 02:05:43;;;;;;;13.07;8.43;;;;;;;0.60;100.00;94636.94;5053018;28;20171;-58
2021/12/03 02:08:09;;;;;;;12.23;8.07;;;;;;;0.63;100.00;94641.59;5052792;28;20173;-58
2021/12/03 02:10:35;;;;;;;11.80;7.50;;;;;;;0.60;100.00;94634.25;5052721;28;20575;-58
2021/12/03 02:13:01;;;;;;;11.20;7.53;;;;;;;0.59;100.00;94631.91;5052716;28;20174;-58
2021/12/03 02:15:27;;;;;;;10.13;6.83;;;;;;;0.58;100.00;94631.13;5052825;28;20197;-58
2021/12/03 02:17:52;;;;;;;11.57;7.63;;;;;;;0.55;100.00;94631.06;5052692;28;20171;-59
2021/12/03 02:20:18;;;;;;;11.17;7.30;;;;;;;0.54;100.00;94635.66;5053192;28;20183;-61
2021/12/03 02:22:45;;;;;;;12.87;7.63;;;;;;;0.55;100.00;94637.22;5052558;28;20175;-49
2021/12/03 02:25:14;;;;;;;10.97;7.87;;;;;;;0.50;100.00;94644.81;5052541;28;20206;-58
2021/12/03 02:27:40;;;;;;;11.23;7.83;;;;;;;0.45;100.00;94648.56;5052253;28;20196;-59
2021/12/03 02:30:08;;;;;;;13.83;7.80;;;;;;;0.46;100.00;94644.72;5052567;28;20195;-58
2021/12/03 02:32:34;;;;;;;12.53;8.60;;;;;;;0.45;100.00;94635.13;5052325;28;20188;-59
2021/12/03 02:35:00;;;;;;;12.77;8.47;;;;;;;0.41;100.00;94650.41;5052757;28;20179;-59
2021/12/03 02:37:25;;;;;;;11.43;7.87;;;;;;;0.37;100.00;94641.53;5052457;28;20238;-58
2021/12/03 02:39:51;;;;;;;12.33;7.77;;;;;;;0.36;100.00;94649.94;5052205;28;20181;-58
2021/12/03 02:42:16;;;;;;;13.67;8.30;;;;;;;0.35;100.00;94659.88;5052378;28;20175;-65
2021/12/03 02:44:42;;;;;;;13.80;8.50;;;;;;;0.31;100.00;94664.41;5052641;28;20174;-64
2021/12/03 02:47:07;;;;;;;11.37;7.70;;;;;;;0.33;100.00;94666.75;5052787;28;20276;-64
2021/12/03 02:49:38;;;;;;;13.53;9.10;;;;;;;0.35;100.00;94670.63;5052850;28;20170;-64
2021/12/03 02:52:03;;;;;;;10.63;7.23;;;;;;;0.38;100.00;94672.59;5052539;28;20194;-64
2021/12/03 02:54:29;;;;;;;11.67;7.67;;;;;;;0.41;100.00;94674.56;5052170;28;20212;-64
2021/12/03 02:56:54;;;;;;;10.90;7.73;;;;;;;0.42;100.00;94670.75;5052332;28;20198;-64
2021/12/03 02:59:19;;;;;;;11.90;7.80;;;;;;;0.47;100.00;94686.56;5052222;28;20218;-59
2021/12/03 03:01:45;;;;;;;11.67;7.73;;;;;;;0.50;100.00;94693.91;5052578;28;20182;-48
2021/12/03 03:04:10;;;;;;;11.47;7.57;;;;;;;0.52;100.00;94686.28;5052291;28;20261;-48
2021/12/03 03:06:36;;;;;;;10.27;7.10;;;;;;;0.55;100.00;94682.88;5052363;28;20202;-50
2021/12/03 03:09:07;;;;;;;8.23;6.77;;;;;;;0.53;100.00;94681.66;5052268;28;20256;-53
2021/12/03 03:11:33;;;;;;;9.97;6.63;;;;;;;0.54;100.00;94689.38;5052845;28;20200;-51
2021/12/03 03:13:58;;;;;;;13.13;7.20;;;;;;;0.55;100.00;94696.31;5052724;28;20186;-53
2021/12/03 03:16:24;;;;;;;8.87;6.97;;;;;;;0.59;100.00;94694.47;5052460;28;20216;-63
2021/12/03 03:18:50;;;;;;;9.70;6.67;;;;;;;0.60;100.00;94700.59;5052214;28;20186;-52
2021/12/03 03:21:15;;;;;;;10.30;6.67;;;;;;;0.59;100.00;94707.88;5052275;28;20167;-48
2021/12/03 03:23:41;;;;;;;9.77;6.63;;;;;;;0.60;100.00;94709.44;5054940;28;20293;-48
2021/12/03 03:26:07;;;;;;;9.73;6.77;;;;;;;0.58;100.00;94711.69;5055683;28;20212;-48
2021/12/03 03:28:32;;;;;;;10.73;7.43;;;;;;;0.63;100.00;94708.72;5056060;28;20206;-51
2021/12/03 03:31:00;;;;;;;10.13;6.97;;;;;;;0.58;100.00;94700.94;5056040;28;20190;-49
2021/12/03 03:33:27;;;;;;;9.50;6.80;;;;;;;0.55;100.00;94703.59;5055578;28;20176;-48
2021/12/03 03:35:53;;;;;;;10.97;7.13;;;;;;;0.58;100.00;94708.25;5055516;28;20292;-51
2021/12/03 03:38:18;;;;;;;10.10;6.97;;;;;;;0.58;100.00;94708.25;5056205;28;20202;-59
2021/12/03 03:40:46;;;;;;;11.87;7.10;;;;;;;0.56;100.00;94718.56;5055996;28;20222;-59
2021/12/03 03:43:11;;;;;;;11.33;7.17;;;;;;;0.54;100.00;94723.53;5055463;28;20189;-60
2021/12/03 03:45:39;;;;;;;11.10;6.90;;;;;;;0.58;100.00;94721.66;5055961;28;20170;-60
2021/12/03 03:48:05;;;;;;;10.30;7.00;;;;;;;0.54;100.00;94726.97;5055480;28;20182;-59
2021/12/03 03:50:30;;;;;;;10.60;6.67;;;;;;;0.56;100.00;94713.19;5055471;28;20200;-60
2021/12/03 03:52:57;;;;;;;7.90;6.60;;;;;;;0.51;100.00;94714.25;5055726;28;20171;-59
2021/12/03 03:55:23;;;;;;;9.77;6.50;;;;;;;0.55;100.00;94712.44;5055569;28;20171;-49
2021/12/03 03:57:53;;;;;;;11.37;7.07;;;;;;;0.52;100.00;94723.88;5055644;28;20227;-59
2021/12/03 04:00:27;;;;;;;10.33;6.90;;;;;;;0.50;100.00;94726.13;5055340;28;20171;-59
2021/12/03 04:02:53;;;;;;;9.83;6.70;;;;;;;0.51;100.00;94733.03;5055678;28;20609;-59
2021/12/03 04:05:18;;;;;;;8.77;6.10;;;;;;;0.52;100.00;94728.47;5054942;28;20272;-59
2021/12/03 04:07:44;;;;;;;8.77;5.60;;;;;;;0.56;100.00;94727.41;5055524;28;20266;-59
2021/12/03 04:10:10;;;;;;;8.47;6.00;;;;;;;0.62;100.00;94738.63;5055160;28;20180;-59
2021/12/03 04:12:36;;;;;;;9.80;6.23;;;;;;;0.59;100.00;94721.31;5055001;28;20187;-50
2021/12/03 04:15:04;;;;;;;8.37;6.17;;;;;;;0.63;100.00;94735.59;5054788;28;20219;-55
2021/12/03 04:17:29;;;;;;;9.47;6.40;;;;;;;0.64;100.00;94734.44;5054810;28;20229;-56
2021/12/03 04:19:54;;;;;;;9.17;6.17;;;;;;;0.65;100.00;94744.03;5054899;28;20187;-57
2021/12/03 04:22:23;;;;;;;16.23;9.57;;;;;;;0.67;100.00;94747.16;5054961;28;20242;-56
2021/12/03 04:24:51;;;;;;;8.47;6.87;;;;;;;0.63;100.00;94746.31;5055379;28;20584;-56
2021/12/03 04:27:17;;;;;;;12.57;8.47;;;;;;;0.58;100.00;94749.28;5054687;28;20167;-57
2021/12/03 04:29:42;;;;;;;10.10;7.03;;;;;;;0.52;100.00;94756.09;5054854;28;20201;-54
2021/12/03 04:32:08;;;;;;;12.20;6.87;;;;;;;0.52;100.00;94756.09;5054624;28;20258;-59
2021/12/03 04:34:35;;;;;;;7.77;5.90;;;;;;;0.47;100.00;94759.06;5055196;28;20304;-63
2021/12/03 04:37:00;;;;;;;8.33;5.87;;;;;;;0.50;100.00;94763.72;5055442;28;20231;-62
2021/12/03 04:39:25;;;;;;;10.20;5.97;;;;;;;0.51;100.00;94769.88;5054632;28;20179;-63
2021/12/03 04:41:51;;;;;;;10.87;6.90;;;;;;;0.57;100.00;94765.75;5054583;28;20180;-62
2021/12/03 04:44:16;;;;;;;9.70;6.40;;;;;;;0.55;100.00;94776.09;5054370;28;20175;-62
2021/12/03 04:46:41;;;;;;;8.60;5.90;;;;;;;0.56;100.00;94773.03;5054730;28;20183;-64
2021/12/03 04:49:07;;;;;;;8.57;6.23;;;;;;;0.59;100.00;94774.25;5054460;28;20177;-63
2021/12/03 04:51:32;;;;;;;21.93;13.63;;;;;;;0.59;100.00;94779.63;5054553;28;20186;-63
2021/12/03 04:53:57;;;;;;;10.43;7.83;;;;;;;0.54;100.00;94786.03;5054143;28;20187;-63
2021/12/03 04:56:23;;;;;;;9.07;6.27;;;;;;;0.50;100.00;94785.19;5054023;28;20231;-64
2021/12/03 04:58:48;;;;;;;9.57;6.83;;;;;;;0.48;100.00;94792.06;5054131;28;20220;-59
2021/12/03 05:01:13;;;;;;;20.63;12.37;;;;;;;0.49;100.00;94797.06;5054175;28;20258;-65
2021/12/03 05:03:39;;;;;;;9.17;6.87;;;;;;;0.46;100.00;94795.09;5053750;28;20206;-62
2021/12/03 05:06:08;;;;;;;9.63;7.13;;;;;;;0.48;100.00;94800.91;5053907;28;20186;-57
2021/12/03 05:08:34;;;;;;;10.23;6.23;;;;;;;0.52;100.00;94804.44;5054069;28;20247;-52
2021/12/03 05:11:00;;;;;;;9.77;6.40;;;;;;;0.53;100.00;94815.94;5053852;28;20179;-53
2021/12/03 05:13:28;;;;;;;10.83;6.07;;;;;;;0.54;100.00;94812.91;5053879;28;20183;-55
2021/12/03 05:15:54;;;;;;;8.67;5.90;;;;;;;0.52;100.00;94815.16;5053827;28;20247;-53
2021/12/03 05:18:22;;;;;;;7.77;6.13;;;;;;;0.52;100.00;94828.59;5054315;28;20203;-53
2021/12/03 05:20:49;;;;;;;8.10;5.40;;;;;;;0.51;100.00;94824.34;5053235;28;20171;-55
2021/12/03 05:23:15;;;;;;;13.73;9.67;;;;;;;0.51;100.00;94829.72;5054149;28;20182;-50
2021/12/03 05:25:41;;;;;;;10.37;7.13;;;;;;;0.50;100.00;94822.78;5053582;28;20178;-59
2021/12/03 05:28:07;;;;;;;8.70;5.93;;;;;;;0.49;100.00;94831.97;5053574;28;20233;-55
2021/12/03 05:30:33;;;;;;;7.63;5.80;;;;;;;0.46;100.00;94830.00;5053719;28;20181;-52
2021/12/03 05:32:59;;;;;;;8.20;5.63;;;;;;;0.44;100.00;94832.28;5053262;28;20271;-51
2021/12/03 05:35:26;;;;;;;10.70;6.03;;;;;;;0.45;100.00;94844.56;5053031;28;20259;-55
2021/12/03 05:37:51;;;;;;;8.57;5.67;;;;;;;0.45;100.00;94841.09;5052947;28;20702;-51
2021/12/03 05:40:17;;;;;;;8.50;6.13;;;;;;;0.42;100.00;94847.94;5053385;28;20182;-47
2021/12/03 05:42:45;;;;;;;8.47;5.83;;;;;;;0.43;100.00;94860.22;5053416;28;20373;-62
2021/12/03 05:45:17;;;;;;;8.57;6.23;;;;;;;0.41;100.00;94862.50;5052947;28;20174;-48
2021/12/03 05:47:43;;;;;;;9.83;6.43;;;;;;;0.47;100.00;94861.09;5053505;28;20179;-54
2021/12/03 05:50:11;;;;;;;7.63;6.27;;;;;;;0.48;100.00;94862.66;5053098;28;20205;-56
2021/12/03 05:52:36;;;;;;;9.33;6.10;;;;;;;0.45;100.00;94876.78;5053023;28;20306;-55
2021/12/03 05:55:03;;;;;;;8.67;5.90;;;;;;;0.45;100.00;94881.38;5053411;28;20176;-54
2021/12/03 05:57:28;;;;;;;8.07;5.90;;;;;;;0.47;100.00;94874.50;5052794;28;20208;-55
2021/12/03 05:59:54;;;;;;;7.83;6.17;;;;;;;0.48;100.00;94884.13;5052572;28;20191;-52
2021/12/03 06:02:20;;;;;;;8.30;6.47;;;;;;;0.51;100.00;94888.78;5053303;28;20174;-49
2021/12/03 06:04:46;;;;;;;9.13;6.10;;;;;;;0.44;100.00;94888.66;5053040;28;20174;-50
2021/12/03 06:07:12;;;;;;;9.80;6.30;;;;;;;0.39;100.00;94891.59;5053152;28;20167;-51
2021/12/03 06:09:37;;;;;;;10.13;6.73;;;;;;;0.43;100.00;94907.81;5053137;28;20184;-50
2021/12/03 06:12:03;;;;;;;9.10;6.70;;;;;;;0.44;100.00;94904.78;5052819;28;20171;-52
2021/12/03 06:14:29;;;;;;;8.43;6.13;;;;;;;0.45;100.00;94906.31;5052629;28;20173;-52
2021/12/03 06:16:56;;;;;;;7.53;6.17;;;;;;;0.40;100.00;94909.25;5052309;28;20236;-50
2021/12/03 06:19:21;;;;;;;11.77;6.97;;;;;;;0.39;100.00;94910.41;5052863;28;20183;-65
2021/12/03 06:21:47;;;;;;;8.80;6.30;;;;;;;0.43;100.00;94919.31;5052706;28;20171;-52
2021/12/03 06:24:12;;;;;;;10.60;6.87;;;;;;;0.45;100.00;94914.38;5052940;28;20221;-53
2021/12/03 06:26:38;;;;;;;10.87;6.87;;;;;;;0.40;100.00;94924.59;5052393;28;20606;-54
2021/12/03 06:29:03;;;;;;;11.37;7.07;;;;;;;0.33;100.00;94919.88;5052569;28;20228;-57
2021/12/03 06:31:28;;;;;;;8.67;6.50;;;;;;;0.32;100.00;94923.66;5052376;28;20184;-55
2021/12/03 06:33:54;;;;;;;9.40;6.90;;;;;;;0.38;100.00;94927.63;5052488;28;20241;-55
2021/12/03 06:36:19;;;;;;;11.23;6.80;;;;;;;0.35;100.00;94928.34;5052309;28;20227;-55
2021/12/03 06:38:44;;;;;;;10.53;7.20;;;;;;;0.38;100.00;94935.69;5052039;28;20186;-66
2021/12/03 06:41:10;;;;;;;9.43;7.03;;;;;;;0.40;100.00;94936.09;5052905;28;20205;-53
2021/12/03 06:43:35;;;;;;;10.63;7.37;;;;;;;0.43;100.00;94935.41;5052926;28;20191;-55
2021/12/03 06:46:00;;;;;;;11.93;7.17;;;;;;;0.44;100.00;94941.56;5052352;28;20255;-55
2021/12/03 06:48:26;;;;;;;11.10;6.83;;;;;;;0.43;100.00;94940.78;5052246;28;20171;-55
2021/12/03 06:50:52;;;;;;;10.17;6.90;;;;;;;0.37;100.00;94941.41;5051759;28;20179;-56
2021/12/03 06:53:21;;;;;;;11.00;7.77;;;;;;;0.37;100.00;94947.56;5052521;28;20261;-55
2021/12/03 06:55:47;;;;;;;10.63;7.70;;;;;;;0.36;100.00;94946.00;5052521;28;20270;-53
2021/12/03 06:58:15;;;;;;;11.00;7.20;;;;;;;0.34;100.00;94952.84;5054463;28;20198;-56
2021/12/03 07:00:41;;;;;;;10.37;7.47;;;;;;;0.34;100.00;94959.00;5057067;28;20228;-63
2021/12/03 07:03:07;;;;;;;10.77;7.10;;;;;;;0.41;100.00;94969.91;5056382;28;20198;-66
2021/12/03 07:05:32;;;;;;;11.37;7.13;;;;;;;0.41;100.00;94975.28;5055949;28;20174;-66
2021/12/03 07:07:58;;;;;;;10.80;7.47;;;;;;;0.41;100.00;94982.53;5056576;28;20173;-64
2021/12/03 07:10:23;;;;;;;14.13;7.83;;;;;;;0.42;100.00;94987.56;5056426;28;20178;-65
2021/12/03 07:12:49;;;;;;;11.03;7.10;;;;;;;0.42;100.00;94982.19;5056089;28;20177;-65
2021/12/03 07:15:15;;;;;;;9.90;7.23;;;;;;;0.43;100.00;94993.72;5056164;28;20175;-66
2021/12/03 07:17:40;;;;;;;9.53;6.83;;;;;;;0.49;100.00;94989.63;5055876;28;20201;-58
2021/12/03 07:20:07;;;;;;;10.77;7.50;;;;;;;0.47;100.00;94989.97;5056995;28;20198;-56
2021/12/03 07:22:33;;;;;;;9.77;7.17;;;;;;;0.50;100.00;94999.25;5056155;28;20194;-58
2021/12/03 07:24:58;;;;;;;10.60;7.20;;;;;;;0.43;100.00;95007.91;5055796;28;20170;-57
2021/12/03 07:27:25;;;;;;;13.33;8.87;;;;;;;0.47;100.00;95008.78;5055701;28;20198;-57
2021/12/03 07:29:50;;;;;;;11.17;7.50;;;;;;;0.46;100.00;95007.22;5056800;28;20171;-58
2021/12/03 07:32:18;;;;;;;13.37;7.80;;;;;;;0.57;100.00;95010.94;5056056;28;20239;-56
2021/12/03 07:34:44;;;;;;;12.87;8.03;;;;;;;0.57;100.00;95016.31;5055417;28;20236;-53
2021/12/03 07:37:10;;;;;;;10.40;7.80;;;;;;;0.63;100.00;95014.13;5054964;28;20647;-60
2021/12/03 07:39:35;;;;;;;12.00;7.63;;;;;;;0.71;100.00;95013.94;5054998;28;20178;-60
2021/12/03 07:42:01;;;;;;;10.87;7.70;;;;;;;0.71;100.00;95008.56;5055607;28;20267;-60
2021/12/03 07:44:26;;;;;;;10.83;7.40;;;;;;;0.73;100.00;95014.34;5055669;28;20211;-60
2021/12/03 07:46:52;;;;;;;10.23;7.23;;;;;;;0.73;100.00;95019.72;5055785;28;20176;-62
2021/12/03 07:49:18;;;;;;;16.93;10.90;;;;;;;0.72;100.00;95023.56;5055043;28;20171;-62
2021/12/03 07:51:43;;;;;;;11.00;7.73;;;;;;;0.76;100.00;95016.34;5055063;28;20176;-66
2021/12/03 07:54:09;;;;;;;13.00;7.57;;;;;;;0.77;100.00;95031.34;5055651;28;20172;-62
2021/12/03 07:56:34;;;;;;;10.90;7.63;;;;;;;0.79;100.00;95039.84;5054708;28;20251;-54
2021/12/03 07:58:59;;;;;;;12.00;8.20;;;;;;;0.78;100.00;95038.28;5055195;28;20199;-55
2021/12/03 08:01:25;;;;;;;11.50;8.17;;;;;;;0.78;100.00;95049.03;5056317;28;20174;-57
2021/12/03 08:03:50;;;;;;;13.70;9.73;;;;;;;0.86;100.00;95042.69;5054990;28;20175;-56
2021/12/03 08:06:16;;;;;;;13.27;9.27;;;;;;;0.85;100.00;95048.41;5054943;28;20184;-56
2021/12/03 08:08:41;;;;;;;11.20;8.17;;;;;;;1.01;100.00;95047.22;5055054;28;20199;-57
2021/12/03 08:11:08;;;;;;;18.83;13.17;;;;;;;1.15;100.00;95054.81;5055122;28;20175;-62
2021/12/03 08:13:34;;;;;;;10.40;7.83;;;;;;;1.28;100.00;95054.38;5054740;28;20168;-52
2021/12/03 08:16:00;;;;;;;22.20;14.13;;;;;;;1.59;100.00;95059.59;5055929;28;20206;-51
2021/12/03 08:18:25;;;;;;;18.93;10.90;;;;;;;1.77;100.00;95052.66;5054482;28;20168;-50
2021/12/03 08:20:52;;;;;;;12.77;8.83;;;;;;;1.97;100.00;95056.13;5054466;28;20180;-51
2021/12/03 08:23:18;;;;;;;11.87;7.80;;;;;;;2.41;100.00;95052.66;5054461;28;20177;-53
2021/12/03 08:25:43;;;;;;;9.13;7.13;;;;;;;3.23;100.00;95053.56;5054407;28;20169;-54
2021/12/03 08:28:09;;;;;;;9.70;7.13;;;;;;;4.23;100.00;95061.72;5054673;28;20269;-62
2021/12/03 08:30:35;;;;;;;8.97;6.80;;;;;;;4.80;100.00;95063.75;5054453;28;20174;-61
2021/12/03 08:33:00;;;;;;;8.27;6.77;;;;;;;5.04;100.00;95072.09;5054289;28;20174;-59
2021/12/03 08:35:26;;;;;;;10.53;6.93;;;;;;;5.11;100.00;95074.84;5054023;28;20240;-59
2021/12/03 08:37:52;;;;;;;8.80;6.67;;;;;;;5.69;100.00;95077.53;5054940;28;20245;-59
2021/12/03 08:40:19;;;;;;;8.43;6.57;;;;;;;5.69;100.00;95082.94;5054425;28;20227;-56
2021/12/03 08:42:45;;;;;;;9.90;7.20;;;;;;;5.96;100.00;95081.53;5054280;28;20199;-54
2021/12/03 08:45:11;;;;;;;7.40;5.93;;;;;;;5.96;100.00;95078.81;5054228;28;20178;-62
2021/12/03 08:47:38;;;;;;;9.80;7.40;;;;;;;6.09;100.00;95082.75;5054050;28;20171;-54
2021/12/03 08:50:08;;;;;;;7.90;6.60;;;;;;;5.97;100.00;95083.09;5053856;28;20176;-58
2021/12/03 08:55:11;;;;;;;9.90;7.90;;;;;;;4.95;100.00;95089.81;5055487;28;20199;-58
2021/12/03 08:57:37;;;;;;;8.60;6.47;;;;;;;4.97;100.00;95101.00;5054100;28;20241;-58
2021/12/03 09:00:12;;;;;;;8.20;6.57;;;;;;;4.70;100.00;95096.91;5053679;28;20568;-57
2021/12/03 09:02:38;;;;;;;12.57;9.00;;;;;;;4.16;100.00;95102.94;5054002;28;20169;-60
2021/12/03 09:05:04;;;;;;;16.93;12.30;;;;;;;4.44;100.00;95105.16;5055058;28;20221;-59
2021/12/03 09:07:29;;;;;;;9.77;7.27;;;;;;;5.05;100.00;95102.63;5054064;28;20182;-70
2021/12/03 09:09:55;;;;;;;10.30;7.43;;;;;;;5.19;100.00;95105.44;5053971;28;20210;-55
2021/12/03 09:12:21;;;;;;;9.60;7.37;;;;;;;5.03;100.00;95111.09;5054088;28;20201;-57
2021/12/03 09:14:55;;;;;;;11.73;8.97;;;;;;;4.97;100.00;95106.41;5053835;28;20173;-55
2021/12/03 09:25:09;;;;;;;6.80;6.10;;;;;;;4.16;100.00;95121.06;5054735;28;20170;-58
2021/12/03 09:27:35;;;;;;;8.07;6.63;;;;;;;4.22;100.00;95125.00;5053439;28;20176;-65
2021/12/03 09:30:03;;;;;;;12.50;6.83;;;;;;;4.92;100.00;95123.00;5053887;28;20256;-65
2021/12/03 09:32:31;;;;;;;7.30;6.40;;;;;;;5.30;100.00;95114.41;5053799;28;20177;-63
2021/12/03 09:34:57;;;;;;;8.80;6.80;;;;;;;5.62;100.00;95120.81;5053155;28;20185;-67
2021/12/03 09:37:23;;;;;;;7.93;6.20;;;;;;;5.72;100.00;95117.41;5052994;28;20232;-65
2021/12/03 09:39:51;;;;;;;7.60;6.47;;;;;;;6.07;100.00;95114.88;5053650;28;20705;-62
2021/12/03 09:42:20;;;;;;;8.93;6.40;;;;;;;6.23;100.00;95118.81;5052907;28;20262;-48
2021/12/03 09:44:46;;;;;;;7.20;6.30;;;;;;;6.28;100.00;95117.69;5052931;28;20181;-55
2021/12/03 09:47:15;;;;;;;6.77;5.93;;;;;;;6.85;100.00;95105.81;5053353;28;20634;-56
2021/12/03 09:49:42;;;;;;;7.40;6.07;;;;;;;6.90;100.00;95113.56;5053125;28;20174;-54
2021/12/03 09:54:56;;;;;;;7.70;6.20;;;;;;;6.76;100.00;95111.59;5054120;28;20164;-50
2021/12/03 10:00:21;;;;;;;6.43;5.40;;;;;;;6.74;100.00;95115.88;5054017;28;20201;-58
2021/12/03 10:03:24;;;;;;;6.53;5.27;;;;;;;6.80;100.00;95114.31;5053262;28;20174;-60
2021/12/03 10:19:58;;;;;;;7.87;5.80;;;;;;;7.10;100.00;95076.72;5053773;28;20221;-58
2021/12/03 10:27:58;;;;;;;6.77;5.47;;;;;;;6.71;100.00;95078.66;5053457;28;20642;-62
2021/12/03 10:30:49;;;;;;;5.83;5.20;;;;;;;6.31;100.00;95070.81;5052855;28;20170;-62
2021/12/03 10:39:06;;;;;;;9.97;7.53;;;;;;;4.59;100.00;95071.72;5053545;28;20165;-55
2021/12/03 10:49:44;;;;;;;5.47;4.30;;;;;;;3.78;100.00;95064.69;5053714;28;20173;-52
2021/12/03 11:14:20;;;;;;;5.27;3.73;;;;;;;2.91;100.00;95065.81;5053219;28;20158;-52
2021/12/03 12:16:08;;;;;;;4.57;3.83;;;;;;;2.04;100.00;95040.84;5056211;28;20195;-58
2021/12/03 13:01:05;;;;;;;10.53;5.20;;;;;;;2.07;100.00;95018.59;5055783;28;20212;-60
2021/12/03 14:32:47;;;;;;;5.83;4.30;;;;;;;1.57;100.00;95008.06;5054037;28;20166;-68
2021/12/03 14:35:21;;;;;;;5.87;3.77;;;;;;;1.57;100.00;95005.38;5053487;28;20171;-69
2021/12/03 14:37:21;;;;;;;6.70;4.43;;;;;;;1.53;100.00;94999.16;5053510;28;20227;-51
2021/12/03 14:39:55;;;;;;;5.47;4.20;;;;;;;1.51;100.00;95001.44;5053561;28;20168;-69
2021/12/03 14:44:59;;;;;;;6.63;4.33;;;;;;;1.42;100.00;94998.16;5053494;28;20163;-71
2021/12/03 14:47:52;;;;;;;6.93;4.40;;;;;;;1.35;100.00;95008.00;5051905;28;20179;-70
2021/12/03 14:55:33;;;;;;;8.23;4.40;;;;;;;1.20;100.00;95006.94;5053270;28;20156;-56
2021/12/03 14:58:10;;;;;;;6.27;4.40;;;;;;;1.14;100.00;95013.75;5052130;28;20202;-56
2021/12/03 15:06:48;;;;;;;6.30;4.80;;;;;;;0.97;100.00;95019.50;5071198;28;20259;-56
2021/12/03 15:09:27;;;;;;;6.80;4.43;;;;;;;0.94;100.00;95014.81;5054924;28;20699;-56
2021/12/03 15:22:41;;;;;;;5.30;4.23;;;;;;;0.73;100.00;95002.84;5056921;28;20158;-57
2021/12/03 15:25:20;;;;;;;7.90;4.70;;;;;;;0.67;100.00;95001.56;5055948;28;20162;-58
2021/12/03 15:33:37;;;;;;;7.73;5.20;;;;;;;0.61;100.00;94995.66;5057034;28;20176;-54
2021/12/03 15:36:05;;;;;;;8.27;5.20;;;;;;;0.57;100.00;94989.44;5056128;28;20644;-52
2021/12/03 15:39:06;;;;;;;8.23;5.07;;;;;;;0.54;100.00;95000.88;5055751;28;20182;-53
2021/12/03 16:26:31;;;;;;;6.60;4.17;;;;;;;-0.16;100.00;94966.97;5056582;28;20167;-48
2021/12/03 16:48:05;;;;;;;6.60;4.40;;;;;;;-0.41;100.00;94954.84;5056047;28;20167;-61
2021/12/03 16:50:56;;;;;;;6.70;4.50;;;;;;;-0.44;100.00;94958.22;5055701;28;20177;-62
2021/12/03 16:53:28;;;;;;;5.23;4.10;;;;;;;-0.46;100.00;94957.78;5054509;28;20565;-61
2021/12/03 16:56:03;;;;;;;6.37;4.80;;;;;;;-0.48;100.00;94954.66;5055263;28;20178;-60
2021/12/03 16:58:29;;;;;;;6.30;4.80;;;;;;;-0.52;100.00;94964.50;5054517;28;20201;-59
2021/12/03 17:03:49;;;;;;;8.53;5.53;;;;;;;-0.58;100.00;94973.94;5055798;28;20163;-56
2021/12/03 17:14:45;;;;;;;8.73;6.20;;;;;;;-0.72;100.00;94974.31;5055964;28;20170;-55
2021/12/03 17:18:24;;;;;;;10.23;6.60;;;;;;;-0.72;100.00;94970.88;5054883;28;20201;-56
2021/12/03 17:20:58;;;;;;;10.30;6.70;;;;;;;-0.77;100.00;94963.06;5055621;28;20208;-58
2021/12/03 17:52:10;;;;;;;14.73;8.33;;;;;;;-0.91;100.00;94914.50;5015263;28;20203;-47
2021/12/03 17:57:42;;;;;;;15.30;9.60;;;;;;;-0.90;100.00;94916.03;5015144;28;20201;-48
2021/12/03 18:00:16;;;;;;;15.23;9.13;;;;;;;-0.86;100.00;94911.56;5013801;28;20282;-57
2021/12/03 18:02:45;;;;;;;15.03;10.03;;;;;;;-0.85;100.00;94907.75;5014268;28;20171;-55
2021/12/03 18:10:47;;;;;;;9.63;7.13;;;;;;;-0.88;100.00;94905.75;5015076;28;20194;-54
2021/12/03 18:19:04;;;;;;;7.80;5.90;;;;;;;-1.00;100.00;94903.13;5015007;28;20199;-55
2021/12/03 18:48:56;;;;;;;10.93;6.80;;;;;;;-1.45;100.00;94879.31;5014581;28;20280;-57